Time;durP1;ratioP1;P1;durP2;ratioP2;P2;SDS_P1;SDS_P2;PMS_P1;PMS_P2;Temp;Humidity;BMP_temperature;BMP_pressure;BME280_temperature;BME280_humidity;BME280_pressure;Samples;Min_cycle;Max_cycle;Signal;HPM_P1;HPM_P2
2021/05/15 00:00:29;;;;;;;10.57;8.87;;;;;;;18.64;61.56;99551.00;2071764;28;20504;-66
2021/05/15 00:01:30;;;;;;;11.73;7.90;;;;;;;18.63;61.64;99554.78;2073322;28;20591;-66
2021/05/15 00:02:31;;;;;;;8.75;7.57;;;;;;;18.64;61.69;99551.00;2072244;28;20429;-65
2021/05/15 00:03:32;;;;;;;8.90;7.57;;;;;;;18.63;61.57;99549.31;2073229;28;20391;-66
2021/05/15 00:04:32;;;;;;;10.70;7.43;;;;;;;18.62;61.73;99547.63;2073561;28;20025;-65
2021/05/15 00:05:33;;;;;;;12.27;8.83;;;;;;;18.62;61.65;99550.34;2077652;28;20065;-66
2021/05/15 00:06:34;;;;;;;7.63;6.90;;;;;;;18.62;61.61;99543.00;2072727;28;20037;-65
2021/05/15 00:07:36;;;;;;;8.45;7.60;;;;;;;18.62;61.69;99553.06;2070036;28;20100;-66
2021/05/15 00:08:36;;;;;;;9.57;7.85;;;;;;;18.62;61.65;99553.06;2065137;28;20177;-66
2021/05/15 00:09:36;;;;;;;9.00;7.60;;;;;;;18.61;61.68;99556.81;2069951;28;20056;-66
2021/05/15 00:10:37;;;;;;;9.17;7.53;;;;;;;18.63;61.51;99558.34;2070866;28;20053;-66
2021/05/15 00:11:37;;;;;;;9.33;8.07;;;;;;;18.64;61.57;99556.47;2069854;28;20440;-66
2021/05/15 00:12:38;;;;;;;8.33;7.37;;;;;;;18.64;61.47;99556.47;2071313;28;20130;-66
2021/05/15 00:13:38;;;;;;;8.60;7.10;;;;;;;18.64;61.61;99551.00;2071717;28;20053;-65
2021/05/15 00:14:39;;;;;;;7.50;6.53;;;;;;;18.62;61.52;99539.44;2063946;28;20128;-66
2021/05/15 00:15:39;;;;;;;8.30;6.73;;;;;;;18.62;61.58;99547.63;2062869;28;20026;-66
2021/05/15 00:16:40;;;;;;;8.60;7.70;;;;;;;18.64;61.42;99545.56;2075922;28;20039;-66
2021/05/15 00:17:41;;;;;;;7.57;6.77;;;;;;;18.62;61.47;99537.56;2074724;28;20041;-66
2021/05/15 00:18:41;;;;;;;14.30;7.10;;;;;;;18.61;61.50;99534.97;2073008;28;20061;-66
2021/05/15 00:19:42;;;;;;;8.33;7.43;;;;;;;18.61;61.51;99540.44;2074939;28;20033;-66
2021/05/15 00:20:42;;;;;;;9.20;7.20;;;;;;;18.62;61.55;99528.50;2075460;28;20813;-66
2021/05/15 00:21:43;;;;;;;8.43;6.83;;;;;;;18.60;61.50;99527.81;2070697;28;20069;-66
2021/05/15 00:22:44;;;;;;;9.87;7.43;;;;;;;18.60;61.54;99525.06;2070767;28;20029;-66
2021/05/15 00:23:44;;;;;;;10.23;7.15;;;;;;;18.61;61.51;99532.25;2073949;28;20504;-66
2021/05/15 00:24:45;;;;;;;9.73;7.10;;;;;;;18.59;61.39;99526.06;2071091;28;20038;-66
2021/05/15 00:25:45;;;;;;;8.83;7.17;;;;;;;18.60;61.40;99534.13;2071577;28;20783;-66
2021/05/15 00:26:46;;;;;;;7.63;6.07;;;;;;;18.59;61.49;99521.50;2070958;28;20045;-66
2021/05/15 00:27:46;;;;;;;9.93;8.00;;;;;;;18.59;61.50;99520.63;2078819;28;20087;-66
2021/05/15 00:28:47;;;;;;;7.93;6.93;;;;;;;18.58;61.52;99519.78;2075141;28;20100;-66
2021/05/15 00:29:47;;;;;;;8.80;7.83;;;;;;;18.58;61.60;99518.91;2071543;28;20497;-66
2021/05/15 00:30:48;;;;;;;7.37;6.43;;;;;;;18.58;61.39;99518.91;2072351;28;20040;-66
2021/05/15 00:31:48;;;;;;;8.93;6.47;;;;;;;18.57;61.44;99522.66;2070625;28;20108;-66
2021/05/15 00:32:49;;;;;;;8.90;7.30;;;;;;;18.57;61.50;99518.06;2075976;28;20799;-66
2021/05/15 00:33:49;;;;;;;10.47;7.33;;;;;;;18.58;61.41;99524.38;2071037;28;20053;-66
2021/05/15 00:34:50;;;;;;;8.83;7.50;;;;;;;18.58;61.50;99518.91;2076886;28;20081;-67
2021/05/15 00:35:51;;;;;;;9.00;6.77;;;;;;;18.56;61.45;99516.34;2070592;28;20045;-66
2021/05/15 00:36:52;;;;;;;8.03;6.80;;;;;;;18.58;61.39;99518.91;2071839;28;20269;-66
2021/05/15 00:37:52;;;;;;;8.37;7.43;;;;;;;18.57;61.29;99511.72;2069760;28;20261;-66
2021/05/15 00:38:53;;;;;;;8.20;7.20;;;;;;;18.57;61.53;99514.47;2071499;28;20382;-66
2021/05/15 00:39:53;;;;;;;7.73;6.83;;;;;;;18.57;61.30;99506.28;2071182;28;20030;-67
2021/05/15 00:40:54;;;;;;;8.60;6.60;;;;;;;18.57;61.37;99503.53;2071528;28;20025;-66
2021/05/15 00:41:57;;;;;;;9.90;7.43;;;;;;;18.56;61.36;99499.97;2071477;28;20049;-66
2021/05/15 00:42:57;;;;;;;8.85;6.47;;;;;;;18.57;61.42;99500.81;2072765;28;20685;-66
2021/05/15 00:45:24;;;;;;;8.27;7.25;;;;;;;18.54;61.44;99490.22;2070943;28;20112;-66
2021/05/15 00:46:27;;;;;;;7.63;6.33;;;;;;;18.53;61.34;99488.53;2072692;28;20026;-66
2021/05/15 00:47:27;;;;;;;8.52;6.70;;;;;;;18.55;61.39;99486.50;2072790;28;20030;-66
2021/05/15 00:48:28;;;;;;;7.43;6.33;;;;;;;18.55;61.29;99490.06;2075678;28;20076;-66
2021/05/15 00:49:28;;;;;;;7.57;6.77;;;;;;;18.55;61.36;99492.81;2080431;28;20573;-66
2021/05/15 00:50:30;;;;;;;7.40;6.63;;;;;;;18.54;61.28;99480.16;2072801;28;20045;-66
2021/05/15 00:51:31;;;;;;;;;;;;;;;18.50;61.25;99473.31;2065815;28;20074;-66
2021/05/15 00:52:34;;;;;;;8.02;6.65;;;;;;;18.51;61.43;99479.63;2062952;28;20412;-66
2021/05/15 00:53:35;;;;;;;8.57;6.72;;;;;;;18.53;61.46;99483.06;2071280;28;20505;-66
2021/05/15 00:54:37;;;;;;;8.93;7.43;;;;;;;18.51;61.35;99479.63;2080245;28;20354;-66
2021/05/15 00:55:37;;;;;;;8.50;6.90;;;;;;;18.53;61.38;99486.66;2076607;28;20109;-66
2021/05/15 00:56:39;;;;;;;10.70;7.57;;;;;;;18.53;61.29;99475.72;2068627;28;20050;-66
2021/05/15 00:57:41;;;;;;;9.07;7.00;;;;;;;18.53;61.36;99477.59;2071431;28;20499;-66
2021/05/15 00:58:42;;;;;;;7.28;6.57;;;;;;;18.53;61.23;99480.34;2074384;28;20048;-66
2021/05/15 00:59:43;;;;;;;8.93;6.55;;;;;;;18.53;61.20;99472.16;2072752;28;20029;-66
2021/05/15 01:00:44;;;;;;;12.43;7.90;;;;;;;18.53;61.32;99474.88;2072434;28;20044;-66
2021/05/15 01:01:44;;;;;;;8.33;6.60;;;;;;;18.53;61.39;99475.72;2072589;28;20041;-66
2021/05/15 01:02:45;;;;;;;8.20;6.60;;;;;;;18.53;61.20;99470.28;2072584;28;20030;-66
2021/05/15 01:03:45;;;;;;;7.50;6.23;;;;;;;18.53;61.33;99469.41;2074313;28;20029;-66
2021/05/15 01:04:46;;;;;;;8.27;5.80;;;;;;;18.53;61.20;99469.41;2079431;28;20021;-66
2021/05/15 01:05:46;;;;;;;8.23;7.43;;;;;;;18.53;61.33;99466.69;2072708;28;20056;-66
2021/05/15 01:06:46;;;;;;;7.67;6.57;;;;;;;18.53;61.24;99455.78;2072500;28;20379;-66
2021/05/15 01:07:48;;;;;;;7.30;6.60;;;;;;;18.53;61.24;99463.97;2071097;28;20059;-66
2021/05/15 01:08:48;;;;;;;7.50;6.68;;;;;;;18.51;61.15;99455.06;2073675;28;20036;-66
2021/05/15 01:09:49;;;;;;;8.53;6.53;;;;;;;18.53;61.08;99455.78;2077686;28;20041;-67
2021/05/15 01:10:49;;;;;;;8.07;6.47;;;;;;;18.52;61.12;99449.47;2075777;28;20060;-66
2021/05/15 01:11:50;;;;;;;7.13;6.33;;;;;;;18.52;61.06;99454.94;2075950;28;20659;-66
2021/05/15 01:12:56;;;;;;;7.23;6.27;;;;;;;18.53;61.08;99450.31;2072542;28;20022;-66
2021/05/15 01:13:59;;;;;;;8.00;7.18;;;;;;;18.52;61.19;99449.47;2072939;28;20036;-66
2021/05/15 01:15:00;;;;;;;7.70;6.00;;;;;;;18.52;61.18;99456.78;2077629;28;20069;-66
2021/05/15 01:16:01;;;;;;;7.60;6.70;;;;;;;18.51;61.18;99446.88;2080954;28;20060;-66
2021/05/15 01:17:02;;;;;;;7.47;6.77;;;;;;;18.52;60.99;99449.47;2075972;28;20117;-66
2021/05/15 01:18:03;;;;;;;7.45;6.47;;;;;;;18.51;61.06;99446.88;2072853;28;20036;-66
2021/05/15 01:19:05;;;;;;;8.80;6.70;;;;;;;18.52;61.14;99448.59;2072526;28;20034;-66
2021/05/15 01:20:06;;;;;;;6.97;6.28;;;;;;;18.51;61.14;99446.88;2079529;28;20033;-66
2021/05/15 01:21:06;;;;;;;7.57;6.50;;;;;;;18.50;61.25;99450.66;2073064;28;20821;-66
2021/05/15 01:22:09;;;;;;;7.97;7.17;;;;;;;18.52;61.07;99454.03;2073053;28;20272;-66
2021/05/15 01:23:10;;;;;;;8.98;7.50;;;;;;;18.51;61.04;99441.44;2073885;28;20033;-66
2021/05/15 01:24:10;;;;;;;6.77;5.67;;;;;;;18.51;61.30;99444.16;2075405;28;20057;-67
2021/05/15 01:25:11;;;;;;;7.47;6.67;;;;;;;18.51;61.08;99441.44;2073984;28;20025;-66
2021/05/15 01:26:17;;;;;;;6.75;5.88;;;;;;;18.50;61.13;99440.56;2080821;28;20029;-66
2021/05/15 01:27:18;;;;;;;7.32;5.50;;;;;;;18.51;61.04;99441.44;2071281;28;20030;-66
2021/05/15 01:28:19;;;;;;;9.87;7.07;;;;;;;18.51;61.12;99446.88;2066259;28;20034;-66
2021/05/15 01:29:19;;;;;;;7.53;6.53;;;;;;;18.53;61.08;99444.84;2072907;28;20097;-66
2021/05/15 01:30:21;;;;;;;7.63;6.40;;;;;;;18.51;60.97;99444.16;2073310;28;20030;-66
2021/05/15 01:31:23;;;;;;;7.25;6.53;;;;;;;18.50;60.83;99439.72;2064731;28;20493;-67
2021/05/15 01:32:23;;;;;;;6.88;6.18;;;;;;;18.49;61.09;99441.56;2074717;28;20124;-66
2021/05/15 01:33:24;;;;;;;7.20;6.30;;;;;;;18.49;61.06;99438.84;2078630;28;20034;-66
2021/05/15 01:34:24;;;;;;;8.57;6.97;;;;;;;18.50;61.10;99437.00;2074237;28;20535;-66
2021/05/15 01:35:25;;;;;;;7.17;5.97;;;;;;;18.49;60.98;99438.84;2072394;28;20053;-66
2021/05/15 01:36:28;;;;;;;8.20;6.35;;;;;;;18.50;61.10;99434.28;2064913;28;20026;-67
2021/05/15 01:37:28;;;;;;;6.25;5.65;;;;;;;18.51;61.10;99444.16;2070799;28;20034;-66
2021/05/15 01:38:28;;;;;;;6.67;5.97;;;;;;;18.50;60.82;99442.47;2080002;28;20075;-66
2021/05/15 01:39:31;;;;;;;7.37;6.60;;;;;;;18.50;60.92;99446.03;2074395;28;20065;-66
2021/05/15 01:40:31;;;;;;;6.93;5.85;;;;;;;18.49;60.91;99443.44;2072888;28;20030;-66
2021/05/15 01:41:32;;;;;;;6.77;5.70;;;;;;;18.50;61.05;99446.03;2070992;28;20026;-66
2021/05/15 01:42:32;;;;;;;8.10;6.77;;;;;;;18.50;60.97;99447.91;2071406;28;20112;-65
2021/05/15 01:43:34;;;;;;;7.53;6.60;;;;;;;18.49;60.99;99438.84;2071322;28;20546;-65
2021/05/15 01:44:35;;;;;;;7.45;6.35;;;;;;;18.50;61.01;99439.72;2071895;28;20040;-66
2021/05/15 01:45:35;;;;;;;7.30;5.80;;;;;;;18.49;61.15;99438.00;2073008;28;20025;-66
2021/05/15 01:46:36;;;;;;;7.60;6.60;;;;;;;18.49;61.00;99449.75;2072352;28;20025;-66
2021/05/15 01:47:37;;;;;;;8.73;6.33;;;;;;;18.49;61.03;99440.72;2072617;28;20037;-66
2021/05/15 01:48:39;;;;;;;7.68;6.07;;;;;;;18.50;60.83;99434.28;2065851;28;20030;-67
2021/05/15 01:49:39;;;;;;;6.22;5.55;;;;;;;18.49;61.03;99433.38;2074337;28;20040;-66
2021/05/15 01:50:40;;;;;;;7.67;5.93;;;;;;;18.50;60.84;99428.81;2073005;28;20488;-66
2021/05/15 01:51:40;;;;;;;8.07;6.37;;;;;;;18.49;60.94;99425.19;2077943;28;20033;-66
2021/05/15 01:52:41;;;;;;;7.10;5.60;;;;;;;18.49;60.83;99421.63;2079405;28;20392;-66
2021/05/15 01:53:48;;;;;;;6.90;5.93;;;;;;;18.47;60.84;99423.66;2072345;28;20037;-66
2021/05/15 01:54:48;;;;;;;7.60;6.07;;;;;;;18.47;61.03;99424.53;2075022;28;20029;-66
2021/05/15 01:55:50;;;;;;;7.93;6.07;;;;;;;18.47;61.00;99424.53;2075332;28;20159;-66
2021/05/15 01:56:50;;;;;;;8.27;6.68;;;;;;;18.47;61.05;99419.06;2072399;28;20068;-66
2021/05/15 01:57:51;;;;;;;7.20;6.27;;;;;;;18.47;60.88;99419.06;2073872;28;20030;-66
2021/05/15 01:58:52;;;;;;;8.17;5.83;;;;;;;18.48;60.79;99411.75;2078569;28;20435;-66
2021/05/15 01:59:52;;;;;;;6.90;6.20;;;;;;;18.47;60.92;99407.28;2074998;28;20057;-66
2021/05/15 02:00:53;;;;;;;6.93;6.23;;;;;;;18.48;60.94;99409.00;2074510;28;20029;-66
2021/05/15 02:01:54;;;;;;;8.07;6.03;;;;;;;18.47;60.87;99404.56;2073680;28;20049;-66
2021/05/15 02:02:54;;;;;;;6.67;5.63;;;;;;;18.47;60.81;99401.81;2073064;28;20117;-66
2021/05/15 02:03:55;;;;;;;5.83;5.27;;;;;;;18.46;61.04;99409.16;2072145;28;20097;-66
2021/05/15 02:04:55;;;;;;;8.80;6.50;;;;;;;18.47;60.85;99407.28;2077282;28;20097;-66
2021/05/15 02:05:57;;;;;;;6.60;5.73;;;;;;;18.48;60.82;99417.19;2074364;28;20156;-66
2021/05/15 02:06:57;;;;;;;5.95;5.35;;;;;;;18.49;60.95;99410.72;2072160;28;20033;-66
2021/05/15 02:07:58;;;;;;;7.43;6.03;;;;;;;18.47;60.97;99404.56;2073579;28;20113;-66
2021/05/15 02:08:58;;;;;;;8.10;5.63;;;;;;;18.47;60.91;99412.75;2075291;28;20026;-66
2021/05/15 02:09:59;;;;;;;7.20;6.20;;;;;;;18.47;60.76;99410.88;2073374;28;20100;-66
2021/05/15 02:10:59;;;;;;;7.77;5.80;;;;;;;18.47;61.01;99407.28;2072663;28;20030;-66
2021/05/15 02:12:00;;;;;;;7.23;6.17;;;;;;;18.45;60.78;99399.28;2074271;28;20030;-67
2021/05/15 02:13:00;;;;;;;6.17;5.57;;;;;;;18.47;60.79;99401.81;2072363;28;20026;-66
2021/05/15 02:14:01;;;;;;;6.67;5.43;;;;;;;18.46;61.05;99406.44;2076658;28;20036;-66
2021/05/15 02:15:02;;;;;;;9.40;6.27;;;;;;;18.46;60.94;99402.84;2080321;28;20114;-66
2021/05/15 02:16:04;;;;;;;6.20;5.55;;;;;;;18.47;60.94;99396.38;2073894;28;20148;-66
2021/05/15 02:17:04;;;;;;;7.18;6.05;;;;;;;18.47;60.80;99393.63;2074441;28;20021;-66
2021/05/15 02:18:07;;;;;;;5.90;5.23;;;;;;;18.45;60.95;99402.00;2072525;28;20064;-66
2021/05/15 02:19:07;;;;;;;6.30;5.40;;;;;;;18.46;60.87;99394.66;2073799;28;20066;-67
2021/05/15 02:20:09;;;;;;;6.87;6.07;;;;;;;18.45;60.98;99396.53;2072357;28;20022;-66
2021/05/15 02:21:09;;;;;;;6.57;5.35;;;;;;;18.46;60.89;99394.66;2072407;28;20018;-66
2021/05/15 02:22:10;;;;;;;6.87;5.77;;;;;;;18.45;60.88;99393.81;2071741;28;20032;-65
2021/05/15 02:23:11;;;;;;;6.43;5.47;;;;;;;18.45;60.71;99391.09;2072378;28;20014;-66
2021/05/15 02:24:12;;;;;;;6.57;5.60;;;;;;;18.45;60.95;99387.47;2076325;28;20036;-66
2021/05/15 02:25:13;;;;;;;7.53;6.10;;;;;;;18.45;60.88;99390.22;2071550;28;20041;-66
2021/05/15 02:26:13;;;;;;;6.67;5.57;;;;;;;18.45;60.82;99391.09;2063996;28;20114;-66
2021/05/15 02:27:14;;;;;;;5.93;5.10;;;;;;;18.45;60.88;99387.47;2072433;28;20025;-66
2021/05/15 02:28:16;;;;;;;7.50;6.43;;;;;;;18.45;60.78;99387.47;2080718;28;20048;-66
2021/05/15 02:29:17;;;;;;;6.45;5.43;;;;;;;18.45;60.90;99387.47;2074684;28;20026;-66
2021/05/15 02:30:19;;;;;;;8.70;6.30;;;;;;;18.44;60.83;99381.16;2071898;28;20045;-66
2021/05/15 02:31:20;;;;;;;8.32;5.45;;;;;;;18.45;60.74;99382.03;2072440;28;20029;-66
2021/05/15 02:32:20;;;;;;;7.73;5.80;;;;;;;18.43;60.87;99380.31;2074672;28;20025;-66
2021/05/15 02:33:21;;;;;;;6.83;5.90;;;;;;;18.44;60.74;99375.72;2075047;28;20018;-66
2021/05/15 02:34:21;;;;;;;6.70;6.00;;;;;;;18.43;60.67;99374.88;2075010;28;20080;-66
2021/05/15 02:35:22;;;;;;;7.43;5.77;;;;;;;18.42;60.83;99373.16;2075472;28;20033;-66
2021/05/15 02:36:23;;;;;;;7.47;5.53;;;;;;;18.43;60.84;99374.88;2072453;28;20034;-66
2021/05/15 02:37:23;;;;;;;7.67;5.53;;;;;;;18.41;60.89;99382.34;2071672;28;20033;-66
2021/05/15 02:38:24;;;;;;;6.63;5.80;;;;;;;18.42;60.66;99375.91;2072198;28;20061;-66
2021/05/15 02:39:24;;;;;;;6.17;5.27;;;;;;;18.42;60.85;99370.44;2071227;28;20585;-66
2021/05/15 02:40:25;;;;;;;5.77;4.87;;;;;;;18.42;60.82;99364.97;2072692;28;20156;-66
2021/05/15 02:41:25;;;;;;;6.80;5.40;;;;;;;18.42;60.68;99367.72;2072444;28;20145;-66
2021/05/15 02:42:26;;;;;;;6.20;5.27;;;;;;;18.42;60.70;99373.16;2071920;28;20508;-66
2021/05/15 02:43:26;;;;;;;6.87;5.53;;;;;;;18.43;60.80;99379.47;2077282;28;20059;-66
2021/05/15 02:44:27;;;;;;;6.47;5.20;;;;;;;18.42;60.73;99375.91;2077243;28;20108;-65
2021/05/15 02:45:27;;;;;;;7.00;6.00;;;;;;;18.42;60.80;99377.75;2072442;28;20038;-66
2021/05/15 02:46:28;;;;;;;6.33;5.60;;;;;;;18.43;60.98;99379.47;2072108;28;20029;-66
2021/05/15 02:47:28;;;;;;;7.13;5.03;;;;;;;18.41;60.50;99376.91;2072145;28;20029;-66
2021/05/15 02:48:29;;;;;;;6.93;5.17;;;;;;;18.42;60.82;99378.63;2072824;28;20719;-66
2021/05/15 02:49:29;;;;;;;6.23;5.57;;;;;;;18.43;60.59;99374.88;2072161;28;20030;-65
2021/05/15 02:50:30;;;;;;;6.53;5.83;;;;;;;18.43;60.47;99374.88;2072391;28;20034;-65
2021/05/15 02:51:30;;;;;;;6.53;5.27;;;;;;;18.42;60.78;99375.91;2071977;28;20096;-65
2021/05/15 02:52:31;;;;;;;6.73;5.27;;;;;;;18.42;60.72;99364.97;2072312;28;20735;-65
2021/05/15 02:53:31;;;;;;;6.33;5.67;;;;;;;18.42;60.72;99367.72;2079977;28;20144;-65
2021/05/15 02:54:33;;;;;;;6.27;5.67;;;;;;;18.43;60.62;99366.69;2072817;28;20133;-65
2021/05/15 02:55:33;;;;;;;6.93;5.18;;;;;;;18.42;60.79;99372.28;2063711;28;20046;-65
2021/05/15 02:56:34;;;;;;;8.10;5.80;;;;;;;18.42;60.75;99373.16;2068058;28;20484;-65
2021/05/15 02:57:35;;;;;;;6.05;5.00;;;;;;;18.41;60.81;99376.91;2069711;28;20040;-65
2021/05/15 02:58:36;;;;;;;6.60;5.90;;;;;;;18.42;60.68;99377.75;2069793;28;20041;-67
2021/05/15 02:59:36;;;;;;;5.60;5.07;;;;;;;18.41;60.67;99376.91;2076264;28;20120;-65
2021/05/15 03:00:37;;;;;;;6.87;5.53;;;;;;;18.41;60.67;99378.78;2080642;28;20048;-65
2021/05/15 03:01:38;;;;;;;5.60;4.87;;;;;;;18.41;60.54;99379.63;2072796;28;20066;-65
2021/05/15 03:02:38;;;;;;;5.80;5.20;;;;;;;18.41;60.76;99371.44;2072550;28;20018;-65
2021/05/15 03:03:39;;;;;;;7.27;5.40;;;;;;;18.41;60.77;99365.13;2072421;28;20022;-65
2021/05/15 03:04:39;;;;;;;6.33;5.27;;;;;;;18.40;60.57;99367.00;2072100;28;20030;-65
2021/05/15 03:05:40;;;;;;;6.50;4.90;;;;;;;18.40;60.71;99363.44;2071947;28;20061;-66
2021/05/15 03:06:40;;;;;;;6.70;5.60;;;;;;;18.42;60.55;99356.78;2071510;28;20724;-65
2021/05/15 03:07:41;;;;;;;5.80;4.80;;;;;;;18.41;60.55;99360.53;2072450;28;20030;-65
2021/05/15 03:08:41;;;;;;;6.47;5.17;;;;;;;18.42;60.52;99361.38;2070766;28;20034;-65
2021/05/15 03:09:44;;;;;;;5.70;4.57;;;;;;;18.42;60.68;99356.78;2071090;28;20109;-66
2021/05/15 03:10:44;;;;;;;6.30;5.38;;;;;;;18.41;60.73;99367.88;2071975;28;20061;-65
2021/05/15 03:11:45;;;;;;;6.73;4.83;;;;;;;18.40;60.60;99361.56;2072201;28;20028;-65
2021/05/15 03:12:46;;;;;;;5.30;4.60;;;;;;;18.40;60.54;99358.81;2071460;28;20026;-65
2021/05/15 03:13:46;;;;;;;6.93;5.73;;;;;;;18.40;60.60;99353.38;2078814;28;20057;-65
2021/05/15 03:14:47;;;;;;;6.20;4.73;;;;;;;18.42;60.71;99355.91;2073957;28;20168;-65
2021/05/15 03:15:47;;;;;;;7.37;6.33;;;;;;;18.41;60.67;99352.34;2071172;28;20096;-65
2021/05/15 03:16:47;;;;;;;6.43;5.83;;;;;;;18.41;60.55;99349.59;2066529;28;20045;-65
2021/05/15 03:17:48;;;;;;;7.73;5.53;;;;;;;18.40;60.69;99353.38;2070550;28;20017;-66
2021/05/15 03:18:48;;;;;;;7.83;5.60;;;;;;;18.40;60.56;99349.78;2068960;28;20686;-65
2021/05/15 03:19:52;;;;;;;5.80;4.47;;;;;;;18.40;60.69;99347.06;2073019;28;20487;-66
2021/05/15 03:20:52;;;;;;;7.47;5.20;;;;;;;18.38;60.62;99339.03;2071968;28;20077;-65
2021/05/15 03:21:53;;;;;;;5.77;4.90;;;;;;;18.39;60.59;99348.91;2072239;28;20059;-65
2021/05/15 03:22:54;;;;;;;6.43;5.23;;;;;;;18.37;60.62;99337.34;2073337;28;20476;-65
2021/05/15 03:23:54;;;;;;;6.63;5.43;;;;;;;18.39;60.70;99346.19;2071936;28;20488;-65
2021/05/15 03:24:55;;;;;;;6.50;4.83;;;;;;;18.39;60.69;99338.00;2072035;28;20361;-65
2021/05/15 03:25:55;;;;;;;6.67;5.33;;;;;;;18.39;60.70;99337.16;2072339;28;20026;-66
2021/05/15 03:26:56;;;;;;;5.80;5.17;;;;;;;18.39;60.56;99348.91;2077214;28;20037;-65
2021/05/15 03:27:56;;;;;;;6.53;4.93;;;;;;;18.39;60.43;99339.88;2070431;28;20044;-65
2021/05/15 03:28:57;;;;;;;7.33;5.27;;;;;;;18.38;60.68;99349.94;2071863;28;20022;-65
2021/05/15 03:29:57;;;;;;;6.80;5.57;;;;;;;18.38;60.69;99347.22;2071215;28;20022;-65
2021/05/15 03:30:57;;;;;;;6.53;5.00;;;;;;;18.38;60.60;99349.94;2071032;28;20489;-66
2021/05/15 03:31:59;;;;;;;5.67;4.77;;;;;;;18.37;60.50;99348.25;2072256;28;20099;-66
2021/05/15 03:32:59;;;;;;;5.55;4.95;;;;;;;18.38;60.52;99344.50;2078453;28;20032;-65
2021/05/15 03:34:00;;;;;;;5.33;4.83;;;;;;;18.39;60.52;99348.91;2075879;28;20129;-65
2021/05/15 03:35:00;;;;;;;5.83;5.00;;;;;;;18.38;60.55;99347.22;2075797;28;20387;-65
2021/05/15 03:36:02;;;;;;;6.40;4.93;;;;;;;18.37;60.57;99340.06;2074842;28;20117;-65
2021/05/15 03:37:03;;;;;;;;;;;;;;;18.33;60.67;99346.00;2067333;28;20109;-65
2021/05/15 03:38:03;;;;;;;6.20;5.18;;;;;;;18.33;60.67;99341.41;2071434;28;19992;-65
2021/05/15 03:39:05;;;;;;;5.83;4.80;;;;;;;18.34;60.59;99336.78;2075425;28;20092;-65
2021/05/15 03:40:07;;;;;;;5.40;4.90;;;;;;;18.35;60.56;99330.34;2070847;28;20068;-65
2021/05/15 03:41:07;;;;;;;5.50;4.97;;;;;;;18.36;60.67;99334.75;2076583;28;20333;-65
2021/05/15 03:42:08;;;;;;;5.53;4.93;;;;;;;18.36;60.60;99329.31;2077065;28;20077;-65
2021/05/15 03:43:08;;;;;;;5.93;4.77;;;;;;;18.35;60.58;99328.44;2073112;28;20025;-66
2021/05/15 03:44:09;;;;;;;5.70;5.07;;;;;;;18.36;60.75;99323.84;2072142;28;20030;-65
2021/05/15 03:45:09;;;;;;;5.63;4.90;;;;;;;18.35;60.54;99323.00;2072126;28;20068;-65
2021/05/15 03:46:10;;;;;;;5.80;4.67;;;;;;;18.36;60.46;99327.41;2071796;28;20034;-66
2021/05/15 03:47:10;;;;;;;6.80;5.07;;;;;;;18.35;60.53;99328.44;2071980;28;20085;-65
2021/05/15 03:48:11;;;;;;;5.97;5.20;;;;;;;18.35;60.60;99323.00;2076558;28;20017;-66
2021/05/15 03:49:11;;;;;;;5.77;4.67;;;;;;;18.36;60.57;99323.84;2072354;28;20030;-65
2021/05/15 03:50:13;;;;;;;5.97;4.73;;;;;;;18.37;60.52;99317.34;2074181;28;20036;-65
2021/05/15 03:51:13;;;;;;;5.90;5.25;;;;;;;18.35;60.40;99314.81;2070020;28;20059;-65
2021/05/15 03:52:14;;;;;;;6.47;5.40;;;;;;;18.34;60.65;99321.25;2076146;28;20060;-65
2021/05/15 03:53:14;;;;;;;6.47;5.23;;;;;;;18.35;60.57;99316.69;2073701;28;20050;-65
2021/05/15 03:54:23;;;;;;;5.33;4.80;;;;;;;18.34;60.53;99321.25;2078440;28;20025;-65
2021/05/15 03:55:24;;;;;;;6.68;4.90;;;;;;;18.35;60.48;99314.81;2066324;28;20037;-66
2021/05/15 03:56:24;;;;;;;7.10;5.27;;;;;;;18.34;60.56;99321.25;2071719;28;20113;-65
2021/05/15 03:57:25;;;;;;;6.07;5.10;;;;;;;18.35;60.62;99311.22;2075472;28;20060;-66
2021/05/15 03:58:25;;;;;;;5.67;4.90;;;;;;;18.34;60.56;99310.34;2073343;28;20037;-65
2021/05/15 03:59:26;;;;;;;5.90;5.07;;;;;;;18.34;60.46;99315.81;2071810;28;20112;-66
2021/05/15 04:00:26;;;;;;;5.57;4.67;;;;;;;18.36;60.41;99318.38;2071310;28;20061;-65
2021/05/15 04:01:27;;;;;;;5.50;5.00;;;;;;;18.36;60.42;99324.69;2072624;28;20022;-65
2021/05/15 04:02:27;;;;;;;4.97;4.27;;;;;;;18.34;60.36;99321.25;2071923;28;20034;-65
2021/05/15 04:03:28;;;;;;;8.23;5.07;;;;;;;18.36;60.53;99324.69;2077132;28;20033;-65
2021/05/15 04:04:28;;;;;;;5.70;4.63;;;;;;;18.34;60.52;99312.22;2074029;28;20068;-65
2021/05/15 04:05:29;;;;;;;6.33;4.90;;;;;;;18.34;60.59;99315.81;2071217;28;20440;-66
2021/05/15 04:06:30;;;;;;;5.03;4.53;;;;;;;18.35;60.45;99317.53;2077092;28;20127;-66
2021/05/15 04:07:30;;;;;;;5.00;4.30;;;;;;;18.34;60.49;99310.34;2071790;28;20473;-67
2021/05/15 04:08:31;;;;;;;6.30;5.03;;;;;;;18.35;60.36;99309.34;2071899;28;20432;-66
2021/05/15 04:09:31;;;;;;;5.20;4.53;;;;;;;18.35;60.35;99311.22;2077046;28;20399;-66
2021/05/15 04:10:32;;;;;;;5.63;4.60;;;;;;;18.36;60.40;99318.38;2069250;28;20110;-66
2021/05/15 04:11:37;;;;;;;5.57;5.07;;;;;;;18.34;60.39;99321.25;2076703;28;20758;-66
2021/05/15 04:12:46;;;;;;;5.75;4.70;;;;;;;18.34;60.58;99310.34;2072037;28;20081;-67
2021/05/15 04:15:09;;;;;;;5.27;4.77;;;;;;;18.34;60.53;99310.34;2062912;28;20070;-66
2021/05/15 04:18:14;;;;;;;5.33;4.40;;;;;;;18.32;60.46;99309.66;2076813;28;20495;-67
2021/05/15 04:19:14;;;;;;;5.80;4.47;;;;;;;18.33;60.63;99314.13;2077713;28;20040;-66
2021/05/15 04:20:15;;;;;;;5.40;4.23;;;;;;;18.34;60.45;99309.50;2078698;28;20022;-66
2021/05/15 04:21:15;;;;;;;6.27;4.90;;;;;;;18.33;60.51;99305.06;2073459;28;20029;-66
2021/05/15 04:22:16;;;;;;;5.30;4.43;;;;;;;18.33;60.46;99313.25;2072574;28;20022;-67
2021/05/15 04:23:16;;;;;;;6.70;5.67;;;;;;;18.33;60.57;99314.13;2072588;28;20536;-66
2021/05/15 04:24:17;;;;;;;4.93;4.43;;;;;;;18.33;60.26;99311.38;2065549;28;20126;-66
2021/05/15 04:25:17;;;;;;;5.47;4.40;;;;;;;18.33;60.39;99308.66;2069834;28;20125;-66
2021/05/15 04:26:18;;;;;;;5.37;4.40;;;;;;;18.32;60.35;99308.81;2081612;28;20060;-66
2021/05/15 04:27:18;;;;;;;5.30;4.60;;;;;;;18.34;60.36;99315.81;2076951;28;20033;-66
2021/05/15 04:28:19;;;;;;;4.97;4.03;;;;;;;18.35;60.46;99311.22;2080934;28;20046;-66
2021/05/15 04:29:24;;;;;;;4.73;4.27;;;;;;;18.34;60.47;99310.34;2066176;28;20054;-66
2021/05/15 04:30:26;;;;;;;5.20;4.53;;;;;;;18.34;60.45;99315.81;2071045;28;20064;-66
2021/05/15 04:31:27;;;;;;;5.55;4.55;;;;;;;18.34;60.47;99310.34;2076000;28;20044;-66
2021/05/15 04:32:28;;;;;;;5.00;4.32;;;;;;;18.34;60.38;99306.78;2075727;28;20032;-67
2021/05/15 04:33:28;;;;;;;5.40;4.40;;;;;;;18.34;60.43;99320.41;2072906;28;20124;-67
2021/05/15 04:34:29;;;;;;;4.33;3.93;;;;;;;18.34;60.43;99320.41;2064314;28;20045;-66
2021/05/15 04:35:32;;;;;;;6.03;5.00;;;;;;;18.34;60.28;99314.97;2064956;28;20026;-66
2021/05/15 04:36:33;;;;;;;5.00;4.50;;;;;;;18.34;60.27;99321.25;2076511;28;20033;-66
2021/05/15 04:37:33;;;;;;;6.33;4.63;;;;;;;18.33;60.39;99311.38;2065894;28;20023;-66
2021/05/15 04:38:33;;;;;;;4.87;4.10;;;;;;;18.33;60.25;99311.38;2064391;28;20101;-66
2021/05/15 04:39:34;;;;;;;6.03;4.80;;;;;;;18.33;60.37;99303.19;2065185;28;20058;-66
2021/05/15 04:40:35;;;;;;;4.90;4.27;;;;;;;18.33;60.50;99302.34;2072096;28;20018;-66
2021/05/15 04:41:35;;;;;;;5.87;4.77;;;;;;;18.32;60.46;99296.00;2073635;28;20029;-66
2021/05/15 04:42:37;;;;;;;4.50;4.00;;;;;;;18.33;60.26;99300.47;2079013;28;20033;-66
2021/05/15 04:43:38;;;;;;;5.53;4.78;;;;;;;18.33;60.37;99305.94;2075986;28;20048;-67
2021/05/15 04:44:38;;;;;;;4.47;3.67;;;;;;;18.32;60.20;99293.28;2071310;28;20026;-66
2021/05/15 04:45:39;;;;;;;5.33;4.37;;;;;;;18.33;60.18;99300.47;2064644;28;20042;-66
2021/05/15 04:46:39;;;;;;;4.80;4.20;;;;;;;18.33;60.22;99300.47;2073254;28;20524;-66
2021/05/15 04:47:40;;;;;;;5.30;4.07;;;;;;;18.33;60.30;99303.19;2071561;28;20425;-66
2021/05/15 04:48:44;;;;;;;5.55;4.40;;;;;;;18.33;60.27;99307.81;2069541;28;20029;-66
2021/05/15 04:49:44;;;;;;;5.93;4.70;;;;;;;18.32;60.32;99300.63;2073256;28;20405;-66
2021/05/15 04:50:45;;;;;;;6.60;4.93;;;;;;;18.33;60.40;99296.91;2073042;28;20021;-67
2021/05/15 04:51:45;;;;;;;6.17;4.77;;;;;;;18.32;60.42;99296.00;2073639;28;20124;-66